Time;durP1;ratioP1;P1;durP2;ratioP2;P2;SDS_P1;SDS_P2;PMS_P1;PMS_P2;Temp;Humidity;BMP_temperature;BMP_pressure;BME280_temperature;BME280_humidity;BME280_pressure;Samples;Min_cycle;Max_cycle;Signal;HPM_P1;HPM_P2
2021/05/09 00:01:15;;;;;;;;;;;;;;;1.77;72.53;99318.04;2263217;79;20214;-69
2021/05/09 00:04:25;;;;;;;;;;;;;;;1.81;72.53;99322.28;2263282;79;20222;-69
2021/05/09 00:07:36;;;;;;;;;;;;;;;1.80;71.93;99317.14;2263268;79;20218;-69
2021/05/09 00:10:48;;;;;;;;;;;;;;;1.85;72.40;99314.89;2263251;79;20230;-69
2021/05/09 00:13:59;;;;;;;;;;;;;;;1.87;71.59;99315.70;2260117;79;20219;-69
2021/05/09 00:17:10;;;;;;;;;;;;;;;1.80;71.74;99311.97;2260127;79;20270;-69
2021/05/09 00:20:23;;;;;;;;;;;;;;;1.77;71.87;99308.11;2260120;79;20226;-74
2021/05/09 00:23:34;;;;;;;;;;;;;;;1.75;72.26;99304.71;2260106;79;20206;-70
2021/05/09 00:26:45;;;;;;;;;;;;;;;1.74;72.24;99303.88;2260131;79;20219;-69
2021/05/09 00:30:03;;;;;;;;;;;;;;;1.75;72.69;99310.73;2266102;79;20424;-73
2021/05/09 00:33:14;;;;;;;;;;;;;;;1.80;73.20;99299.87;2263229;79;20230;-69
2021/05/09 00:36:26;;;;;;;;;;;;;;;1.89;73.32;99298.41;2260137;79;20486;-69
2021/05/09 00:39:37;;;;;;;;;;;;;;;1.98;73.19;99299.13;2263266;79;20206;-69
2021/05/09 00:42:47;;;;;;;;;;;;;;;2.05;72.85;99298.13;2263229;79;20482;-68
2021/05/09 00:45:58;;;;;;;;;;;;;;;2.08;72.50;99294.19;2260142;79;20482;-69
2021/05/09 00:49:10;;;;;;;;;;;;;;;2.07;72.06;99297.67;2260275;79;20254;-69
2021/05/09 00:52:21;;;;;;;;;;;;;;;2.03;72.23;99296.02;2260096;79;20219;-69
2021/05/09 00:55:32;;;;;;;;;;;;;;;1.99;72.83;99296.95;2260136;79;20215;-69
2021/05/09 00:58:43;;;;;;;;;;;;;;;1.96;73.22;99302.20;2308974;76;20121;-69
2021/05/09 01:01:54;;;;;;;;;;;;;;;1.94;73.44;99307.82;2260252;79;20230;-69
2021/05/09 01:05:24;;;;;;;;;;;;;;;1.93;73.32;99295.78;2381786;74;20268;-69
2021/05/09 01:08:35;;;;;;;;;;;;;;;1.93;73.50;99295.34;2260273;79;20215;-70
2021/05/09 01:11:47;;;;;;;;;;;;;;;1.96;73.67;99292.69;2260104;79;20215;-72
2021/05/09 01:14:58;;;;;;;;;;;;;;;1.97;73.63;99293.11;2260090;79;20218;-74
2021/05/09 01:18:09;;;;;;;;;;;;;;;1.98;73.81;99287.03;2260144;79;20261;-68
2021/05/09 01:21:20;;;;;;;;;;;;;;;1.94;73.46;99293.59;2263241;79;20234;-69
2021/05/09 01:24:32;;;;;;;;;;;;;;;1.93;74.03;99290.16;2260126;79;20219;-69
2021/05/09 01:27:50;;;;;;;;;;;;;;;1.93;73.96;99299.67;2263138;79;20504;-69
2021/05/09 01:31:01;;;;;;;;;;;;;;;1.89;73.73;99294.52;2260288;79;20170;-69
2021/05/09 01:34:18;;;;;;;;;;;;;;;1.86;73.87;99296.33;2263519;79;20240;-69
2021/05/09 01:37:29;;;;;;;;;;;;;;;1.84;73.92;99290.31;2260288;79;20238;-69
2021/05/09 01:40:40;;;;;;;;;;;;;;;1.81;73.77;99299.42;2263270;79;20229;-68
2021/05/09 01:43:51;;;;;;;;;;;;;;;1.81;74.02;99299.42;2260162;79;20482;-69
2021/05/09 01:47:02;;;;;;;;;;;;;;;1.89;74.13;99298.41;2260139;79;20517;-69
2021/05/09 01:50:13;;;;;;;;;;;;;;;1.86;74.09;99297.63;2260109;79;20242;-69
2021/05/09 01:53:25;;;;;;;;;;;;;;;1.82;74.09;99293.38;2260231;79;20218;-69
2021/05/09 01:56:36;;;;;;;;;;;;;;;1.75;74.08;99293.08;2260122;79;20234;-73
2021/05/09 01:59:48;;;;;;;;;;;;;;;1.67;74.28;99296.65;2260150;79;20482;-69
2021/05/09 02:02:59;;;;;;;;;;;;;;;1.64;74.41;99291.53;2263237;79;20222;-69
2021/05/09 02:06:11;;;;;;;;;;;;;;;1.62;74.54;99291.98;2260169;79;20277;-69
2021/05/09 02:09:21;;;;;;;;;;;;;;;1.62;74.97;99285.52;2260127;79;20223;-69
2021/05/09 02:12:32;;;;;;;;;;;;;;;1.60;74.70;99287.28;2260109;79;20219;-69
2021/05/09 02:15:43;;;;;;;;;;;;;;;1.56;74.96;99284.34;2263250;79;20478;-69
2021/05/09 02:18:55;;;;;;;;;;;;;;;1.52;74.96;99283.55;2308930;76;20231;-69
2021/05/09 02:22:06;;;;;;;;;;;;;;;1.48;74.84;99279.72;2263220;79;20498;-69
2021/05/09 02:25:17;;;;;;;;;;;;;;;1.47;75.35;99278.89;2260132;79;20226;-69
2021/05/09 02:28:29;;;;;;;;;;;;;;;1.49;75.50;99286.61;2260143;79;20474;-69
2021/05/09 02:31:40;;;;;;;;;;;;;;;1.56;75.56;99286.47;2308937;76;20125;-69
2021/05/09 02:34:52;;;;;;;;;;;;;;;1.62;76.21;99269.16;2260103;79;20222;-69
2021/05/09 02:38:02;;;;;;;;;;;;;;;1.62;75.47;99274.33;2260142;79;20215;-69
2021/05/09 02:41:14;;;;;;;;;;;;;;;1.64;75.53;99275.14;2263252;79;20218;-69
2021/05/09 02:44:26;;;;;;;;;;;;;;;1.64;75.41;99267.38;2263239;79;20234;-73
2021/05/09 02:47:37;;;;;;;;;;;;;;;1.69;75.53;99260.41;2260136;79;20218;-69
2021/05/09 02:50:49;;;;;;;;;;;;;;;1.69;75.54;99259.96;2263276;79;20482;-69
2021/05/09 02:53:59;;;;;;;;;;;;;;;1.73;75.79;99262.06;2260118;79;20238;-74
2021/05/09 02:57:11;;;;;;;;;;;;;;;1.80;75.93;99261.52;2308880;76;20129;-69
2021/05/09 03:00:21;;;;;;;;;;;;;;;1.85;75.95;99270.03;2260109;79;20502;-69
2021/05/09 03:03:33;;;;;;;;;;;;;;;1.90;75.81;99279.88;2260097;79;20214;-69
2021/05/09 03:06:45;;;;;;;;;;;;;;;1.95;76.39;99270.73;2260251;79;20218;-69
2021/05/09 03:09:58;;;;;;;;;;;;;;;1.96;75.70;99273.73;2260116;79;20481;-68
2021/05/09 03:13:09;;;;;;;;;;;;;;;1.99;75.58;99284.02;2260081;79;20265;-73
2021/05/09 03:16:20;;;;;;;;;;;;;;;2.02;75.56;99278.33;2263234;79;20227;-68
2021/05/09 03:19:31;;;;;;;;;;;;;;;2.12;75.53;99286.78;2260122;79;20230;-69
2021/05/09 03:22:43;;;;;;;;;;;;;;;2.21;75.59;99281.44;2260091;79;20215;-73
2021/05/09 03:25:53;;;;;;;;;;;;;;;2.35;75.53;99288.07;2260293;79;20215;-68
2021/05/09 03:29:05;;;;;;;;;;;;;;;2.44;75.38;99287.87;2263252;79;20477;-74
2021/05/09 03:32:17;;;;;;;;;;;;;;;2.56;75.36;99288.08;2260110;79;20218;-74
2021/05/09 03:35:29;;;;;;;;;;;;;;;2.70;75.42;99289.94;2260265;79;20218;-70
2021/05/09 03:38:41;;;;;;;;;;;;;;;2.90;75.22;99292.52;2263236;79;20222;-69
2021/05/09 03:41:52;;;;;;;;;;;;;;;3.08;75.03;99287.38;2260261;79;20222;-69
2021/05/09 03:45:04;;;;;;;;;;;;;;;3.29;74.84;99282.98;2308876;76;20471;-70
2021/05/09 03:48:16;;;;;;;;;;;;;;;3.52;74.69;99293.67;2260149;79;20498;-69
2021/05/09 03:51:27;;;;;;;;;;;;;;;3.74;74.29;99292.70;2260112;79;20215;-69
2021/05/09 03:54:38;;;;;;;;;;;;;;;3.94;74.16;99292.19;2263261;79;20214;-70
2021/05/09 03:57:49;;;;;;;;;;;;;;;4.11;73.69;99293.04;2260141;79;20478;-69
2021/05/09 04:01:00;;;;;;;;;;;;;;;4.31;73.37;99289.86;2263233;79;20230;-72
2021/05/09 04:04:17;;;;;;;;;;;;;;;4.53;72.94;99293.18;2263812;79;20156;-70
2021/05/09 04:07:28;;;;;;;;;;;;;;;4.67;72.50;99291.03;2263250;79;20481;-69
2021/05/09 04:10:46;;;;;;;;;;;;;;;4.68;72.05;99287.52;2308810;76;20236;-69
2021/05/09 04:13:57;;;;;;;;;;;;;;;4.74;71.82;99289.95;2260166;79;20474;-70
2021/05/09 04:17:08;;;;;;;;;;;;;;;4.89;71.89;99286.48;2260086;79;20226;-69
2021/05/09 04:20:21;;;;;;;;;;;;;;;5.03;71.65;99282.56;2260129;79;20230;-70
2021/05/09 04:23:32;;;;;;;;;;;;;;;5.20;71.55;99288.97;2260249;79;20131;-70
2021/05/09 04:26:43;;;;;;;;;;;;;;;5.48;71.39;99285.50;2260263;79;20222;-70
2021/05/09 04:30:00;;;;;;;;;;;;;;;5.84;70.84;99286.47;2263642;79;20236;-70
2021/05/09 04:33:10;;;;;;;;;;;;;;;6.19;70.39;99285.27;2308877;76;20215;-71
2021/05/09 04:36:22;;;;;;;;;;;;;;;6.64;69.77;99277.55;2260241;79;20210;-71
2021/05/09 04:39:33;;;;;;;;;;;;;;;6.85;68.32;99272.86;2260133;79;20482;-70
2021/05/09 04:42:44;;;;;;;;;;;;;;;6.90;68.04;99276.58;2260125;79;20219;-70
2021/05/09 04:45:56;;;;;;;;;;;;;;;6.95;67.19;99277.23;2260119;79;20223;-70
2021/05/09 04:49:07;;;;;;;;;;;;;;;7.04;67.54;99271.67;2260127;79;20218;-72
2021/05/09 04:52:19;;;;;;;;;;;;;;;7.24;66.53;99259.14;2260246;79;20218;-70
2021/05/09 04:55:30;;;;;;;;;;;;;;;7.42;67.30;99267.13;2260129;79;20226;-71
2021/05/09 04:58:42;;;;;;;;;;;;;;;7.45;66.48;99269.61;2260097;79;20501;-72
2021/05/09 05:01:54;;;;;;;;;;;;;;;7.48;65.82;99266.87;2260096;79;20226;-70
2021/05/09 05:05:05;;;;;;;;;;;;;;;7.52;65.76;99266.30;2260157;79;20222;-70
2021/05/09 05:08:17;;;;;;;;;;;;;;;7.69;65.95;99260.38;2260139;79;20218;-70
2021/05/09 05:11:29;;;;;;;;;;;;;;;7.94;65.28;99255.81;2260079;79;20238;-70
2021/05/09 05:14:38;;;;;;;;;;;;;;;8.07;64.31;99247.42;2260171;79;20473;-71
2021/05/09 05:17:49;;;;;;;;;;;;;;;8.04;64.67;99251.01;2260171;79;20238;-70
2021/05/09 05:21:03;;;;;;;;;;;;;;;8.22;64.56;99249.36;2260108;79;20218;-72
2021/05/09 05:24:16;;;;;;;;;;;;;;;8.42;64.04;99252.83;2260183;79;20215;-72
2021/05/09 05:27:47;;;;;;;;;;;;;;;8.72;63.45;99252.38;2388364;74;20142;-73
2021/05/09 05:30:58;;;;;;;;;;;;;;;9.16;63.41;99262.51;2260084;79;20266;-72
2021/05/09 05:34:17;;;;;;;;;;;;;;;9.26;62.84;99261.13;2263522;79;20236;-71
2021/05/09 05:37:29;;;;;;;;;;;;;;;9.22;62.23;99256.97;2260141;79;20219;-71
2021/05/09 05:40:39;;;;;;;;;;;;;;;9.07;61.13;99255.95;2260151;79;20218;-71
2021/05/09 05:43:51;;;;;;;;;;;;;;;9.32;62.15;99266.53;2260266;79;20218;-71
2021/05/09 05:47:02;;;;;;;;;;;;;;;9.59;61.53;99266.95;2260162;79;20214;-72
2021/05/09 05:50:13;;;;;;;;;;;;;;;9.96;60.96;99260.32;2260101;79;20222;-72
2021/05/09 05:53:24;;;;;;;;;;;;;;;10.35;60.64;99261.33;2260104;79;20222;-72
2021/05/09 05:56:35;;;;;;;;;;;;;;;10.68;60.07;99255.68;2263278;79;20497;-72
2021/05/09 05:59:45;;;;;;;;;;;;;;;11.08;59.23;99246.91;2260146;79;20219;-72
2021/05/09 06:02:57;;;;;;;;;;;;;;;11.36;57.92;99246.64;2260237;79;20147;-72
2021/05/09 06:06:09;;;;;;;;;;;;;;;11.57;58.02;99245.87;2260133;79;20482;-72
2021/05/09 06:09:23;;;;;;;;;;;;;;;11.79;58.33;99254.19;2263262;79;20477;-72
2021/05/09 06:12:40;;;;;;;;;;;;;;;12.10;57.67;99261.58;2263221;79;20511;-72
2021/05/09 06:15:52;;;;;;;;;;;;;;;12.35;56.10;99242.98;2260117;79;20210;-72
2021/05/09 06:19:09;;;;;;;;;;;;;;;12.53;56.02;99249.34;2263515;79;20264;-72
2021/05/09 06:22:20;;;;;;;;;;;;;;;12.78;56.11;99249.50;2260077;79;20214;-72
2021/05/09 06:25:31;;;;;;;;;;;;;;;13.03;56.56;99247.95;2260131;79;20214;-72
2021/05/09 06:28:43;;;;;;;;;;;;;;;13.16;54.45;99244.89;2277427;77;20116;-72
2021/05/09 06:31:55;;;;;;;;;;;;;;;13.27;54.36;99252.08;2260092;79;20490;-72
2021/05/09 06:35:06;;;;;;;;;;;;;;;13.55;54.07;99245.49;2260125;79;20501;-72
2021/05/09 06:38:18;;;;;;;;;;;;;;;13.73;53.34;99244.75;2263381;79;20222;-70
2021/05/09 06:41:30;;;;;;;;;;;;;;;13.95;53.80;99248.94;2260101;79;20215;-72
2021/05/09 06:44:46;;;;;;;;;;;;;;;14.27;53.48;99245.87;2260104;79;20218;-72
2021/05/09 06:48:02;;;;;;;;;;;;;;;14.61;51.67;99234.27;2263627;79;20236;-70
2021/05/09 06:51:18;;;;;;;;;;;;;;;14.61;51.73;99238.69;2263088;79;20531;-72
2021/05/09 06:54:36;;;;;;;;;;;;;;;14.73;50.71;99245.28;2263237;79;20515;-70
2021/05/09 06:57:47;;;;;;;;;;;;;;;14.90;51.72;99240.61;2260165;79;20246;-70
2021/05/09 07:00:58;;;;;;;;;;;;;;;15.14;51.18;99237.98;2260095;79;20131;-72
2021/05/09 07:04:10;;;;;;;;;;;;;;;15.36;49.09;99243.00;2260133;79;20548;-70
2021/05/09 07:07:21;;;;;;;;;;;;;;;15.38;49.39;99240.58;2260136;79;20501;-70
2021/05/09 07:10:32;;;;;;;;;;;;;;;15.54;49.83;99242.95;2260257;79;20143;-72
2021/05/09 07:13:43;;;;;;;;;;;;;;;15.75;49.14;99243.11;2260102;79;20222;-70
2021/05/09 07:16:53;;;;;;;;;;;;;;;15.87;48.17;99240.52;2260132;79;20470;-70
2021/05/09 07:20:00;;;;;;;;;;;;;;;15.99;49.28;99244.02;2126237;77;20129;-70
2021/05/09 07:23:12;;;;;;;;;;;;;;;16.21;48.29;99227.34;2260235;79;20219;-70
2021/05/09 07:26:23;;;;;;;;;;;;;;;16.35;48.38;99226.25;2263293;79;20218;-71
2021/05/09 07:29:42;;;;;;;;;;;;;;;16.44;47.00;99219.75;2263121;79;20272;-70
2021/05/09 07:32:54;;;;;;;;;;;;;;;16.59;46.86;99214.20;2308917;76;20125;-70
2021/05/09 07:36:05;;;;;;;;;;;;;;;16.73;46.30;99214.42;2260137;79;20474;-70
2021/05/09 07:39:16;;;;;;;;;;;;;;;16.94;47.27;99214.54;2260126;79;20242;-70
2021/05/09 07:42:33;;;;;;;;;;;;;;;17.23;46.36;99212.14;2263152;79;20255;-70
2021/05/09 07:45:44;;;;;;;;;;;;;;;17.46;45.38;99214.70;2260264;79;20108;-70
2021/05/09 07:48:54;;;;;;;;;;;;;;;17.58;44.11;99208.84;2260309;79;20211;-70
2021/05/09 07:52:05;;;;;;;;;;;;;;;17.58;43.46;99208.34;2263245;79;20501;-70
2021/05/09 07:55:16;;;;;;;;;;;;;;;17.81;44.08;99213.06;2308844;76;20225;-70
2021/05/09 07:58:28;;;;;;;;;;;;;;;18.04;44.45;99206.77;2263253;79;20167;-71
2021/05/09 08:01:45;;;;;;;;;;;;;;;18.26;41.37;99201.30;2263158;79;20516;-70
2021/05/09 08:04:57;;;;;;;;;;;;;;;18.29;41.71;99200.19;2263231;79;20226;-70
2021/05/09 08:08:14;;;;;;;;;;;;;;;18.31;41.33;99199.06;2263768;79;20150;-71
2021/05/09 08:11:25;;;;;;;;;;;;;;;18.36;38.62;99197.36;2260095;79;20218;-72
2021/05/09 08:14:36;;;;;;;;;;;;;;;18.36;40.60;99194.70;2263269;79;20222;-71
2021/05/09 08:17:47;;;;;;;;;;;;;;;18.51;40.49;99194.66;2263412;79;20214;-70
2021/05/09 08:21:00;;;;;;;;;;;;;;;18.59;38.50;99193.14;2260100;79;20490;-70
2021/05/09 08:24:14;;;;;;;;;;;;;;;18.60;38.98;99185.03;2263241;79;20232;-71
2021/05/09 08:27:33;;;;;;;;;;;;;;;18.58;40.06;99182.19;2263146;79;20256;-71
2021/05/09 08:30:45;;;;;;;;;;;;;;;18.70;38.62;99173.10;2260129;79;20230;-71
2021/05/09 08:33:57;;;;;;;;;;;;;;;18.80;39.33;99175.28;2260097;79;20258;-71
2021/05/09 08:37:08;;;;;;;;;;;;;;;18.97;37.81;99164.99;2260108;79;20227;-71
2021/05/09 08:40:19;;;;;;;;;;;;;;;18.98;37.67;99171.50;2260106;79;20210;-71
2021/05/09 08:43:30;;;;;;;;;;;;;;;19.06;38.16;99158.83;2263243;79;20262;-71
2021/05/09 08:46:41;;;;;;;;;;;;;;;19.25;37.59;99163.80;2263252;79;20226;-71
2021/05/09 08:49:58;;;;;;;;;;;;;;;19.42;36.44;99154.27;2263120;79;20543;-71
2021/05/09 08:53:09;;;;;;;;;;;;;;;19.48;36.17;99162.99;2263350;79;20222;-71
2021/05/09 08:56:21;;;;;;;;;;;;;;;19.74;35.91;99158.75;2263259;79;20493;-71
2021/05/09 08:59:39;;;;;;;;;;;;;;;19.92;32.66;99154.53;2263132;79;20248;-71
2021/05/09 09:03:01;;;;;;;;;;;;;;;19.88;33.80;99152.64;2263071;79;20153;-71
2021/05/09 09:06:19;;;;;;;;;;;;;;;19.86;33.15;99150.62;2263277;79;20267;-71
2021/05/09 09:09:37;;;;;;;;;;;;;;;19.90;34.40;99149.36;2308918;76;20235;-71
2021/05/09 09:12:47;;;;;;;;;;;;;;;20.06;35.35;99157.55;2260131;79;20214;-71
2021/05/09 09:15:59;;;;;;;;;;;;;;;20.29;34.79;99159.01;2260112;79;20237;-71
2021/05/09 09:19:10;;;;;;;;;;;;;;;20.38;33.86;99153.60;2260127;79;20223;-71
2021/05/09 09:22:21;;;;;;;;;;;;;;;20.36;34.23;99155.59;2260123;79;20214;-71
2021/05/09 09:25:32;;;;;;;;;;;;;;;20.55;34.54;99150.63;2260128;79;20218;-71
2021/05/09 09:28:44;;;;;;;;;;;;;;;20.58;33.41;99150.33;2260139;79;20218;-71
2021/05/09 09:32:02;;;;;;;;;;;;;;;20.67;33.04;99153.13;2309223;76;20260;-71
2021/05/09 09:35:14;;;;;;;;;;;;;;;20.74;32.96;99146.20;2260144;79;20482;-71
2021/05/09 09:38:25;;;;;;;;;;;;;;;20.82;33.15;99142.80;2260121;79;20234;-71
2021/05/09 09:41:36;;;;;;;;;;;;;;;20.81;32.80;99143.78;2260112;79;20218;-71
2021/05/09 09:44:54;;;;;;;;;;;;;;;20.78;34.14;99148.91;2263930;79;20169;-71
2021/05/09 09:48:05;;;;;;;;;;;;;;;20.85;31.46;99146.48;2260128;79;20231;-71
2021/05/09 09:51:16;;;;;;;;;;;;;;;20.93;32.09;99153.20;2263226;79;20222;-71
2021/05/09 09:54:27;;;;;;;;;;;;;;;20.96;31.44;99154.73;2263265;79;20501;-71
2021/05/09 09:57:45;;;;;;;;;;;;;;;21.07;34.23;99148.67;2263151;79;20152;-73
2021/05/09 10:00:57;;;;;;;;;;;;;;;21.32;31.25;99146.71;2260070;79;20207;-74
2021/05/09 10:04:08;;;;;;;;;;;;;;;21.42;31.44;99148.30;2309077;76;20136;-73
2021/05/09 10:07:19;;;;;;;;;;;;;;;21.43;31.54;99152.66;2309035;76;20491;-73
2021/05/09 10:10:51;;;;;;;;;;;;;;;21.61;32.52;99147.80;2405584;74;20153;-74
2021/05/09 10:14:09;;;;;;;;;;;;;;;21.68;31.12;99152.86;2263260;79;20244;-73
2021/05/09 10:17:22;;;;;;;;;;;;;;;21.62;30.74;99148.98;2260164;79;20466;-73
2021/05/09 10:20:33;;;;;;;;;;;;;;;21.58;30.71;99136.94;2263218;79;20214;-73
2021/05/09 10:23:45;;;;;;;;;;;;;;;21.77;31.43;99138.55;2260250;79;20221;-73
2021/05/09 10:26:59;;;;;;;;;;;;;;;21.85;31.04;99129.77;2260241;79;20238;-73
2021/05/09 10:30:10;;;;;;;;;;;;;;;21.95;30.13;99121.61;2260133;79;20506;-73
2021/05/09 10:33:23;;;;;;;;;;;;;;;22.04;30.16;99121.15;2263373;79;20218;-73
2021/05/09 10:36:41;;;;;;;;;;;;;;;22.01;30.23;99132.16;2263158;79;20121;-73
2021/05/09 10:39:53;;;;;;;;;;;;;;;22.13;30.75;99124.21;2260287;79;20127;-73
2021/05/09 10:43:11;;;;;;;;;;;;;;;22.27;30.18;99120.92;2263134;79;20173;-73
2021/05/09 10:46:41;;;;;;;;;;;;;;;22.54;30.31;99100.81;2376762;74;20401;-75
2021/05/09 10:49:52;;;;;;;;;;;;;;;22.53;30.35;99108.00;2263417;79;20485;-73
2021/05/09 10:53:03;;;;;;;;;;;;;;;22.64;30.39;99105.50;2263228;79;20230;-73
2021/05/09 10:56:20;;;;;;;;;;;;;;;22.52;29.89;99108.17;2266108;79;20157;-73
2021/05/09 10:59:31;;;;;;;;;;;;;;;22.40;29.54;99103.13;2260248;79;20127;-73
2021/05/09 11:02:48;;;;;;;;;;;;;;;22.54;31.21;99103.48;2263104;79;20416;-73
2021/05/09 11:05:59;;;;;;;;;;;;;;;22.75;29.79;99103.85;2260298;79;20219;-73
2021/05/09 11:09:11;;;;;;;;;;;;;;;22.82;30.26;99102.70;2260114;79;20316;-73
2021/05/09 11:12:27;;;;;;;;;;;;;;;23.06;30.18;99107.23;2260110;79;20498;-73
2021/05/09 11:15:37;;;;;;;;;;;;;;;23.20;31.14;99107.06;2260143;79;20234;-73
2021/05/09 11:18:48;;;;;;;;;;;;;;;23.23;32.18;99101.89;2260274;79;20215;-73
2021/05/09 11:21:58;;;;;;;;;;;;;;;23.04;29.64;99089.16;2260124;79;20478;-73
2021/05/09 11:25:09;;;;;;;;;;;;;;;23.11;30.20;99099.55;2263231;79;20266;-73
2021/05/09 11:28:20;;;;;;;;;;;;;;;23.25;30.48;99097.22;2260114;79;20246;-73
2021/05/09 11:31:30;;;;;;;;;;;;;;;23.24;29.40;99086.17;2308818;76;20204;-73
2021/05/09 11:34:42;;;;;;;;;;;;;;;23.36;30.19;99088.84;2260269;79;20174;-73
2021/05/09 11:37:53;;;;;;;;;;;;;;;23.55;29.86;99081.42;2260126;79;20478;-73
2021/05/09 11:41:04;;;;;;;;;;;;;;;23.75;28.55;99075.17;2263226;79;20226;-73
2021/05/09 11:44:21;;;;;;;;;;;;;;;23.70;28.69;99078.37;2263118;79;20161;-73
2021/05/09 11:47:39;;;;;;;;;;;;;;;23.56;29.63;99077.75;2263109;79;20125;-74
2021/05/09 11:50:51;;;;;;;;;;;;;;;23.60;29.48;99077.74;2260098;79;20481;-73
2021/05/09 11:54:08;;;;;;;;;;;;;;;23.80;28.94;99062.12;2263789;79;20134;-73
2021/05/09 11:57:22;;;;;;;;;;;;;;;23.89;29.62;99062.95;2263243;79;20222;-73
2021/05/09 12:00:40;;;;;;;;;;;;;;;23.83;28.66;99063.11;2263107;79;20500;-73
2021/05/09 12:03:51;;;;;;;;;;;;;;;23.79;29.42;99073.34;2260148;79;20214;-74
2021/05/09 12:07:03;;;;;;;;;;;;;;;24.00;29.54;99063.91;2260101;79;20222;-74
2021/05/09 12:10:14;;;;;;;;;;;;;;;24.00;27.59;99051.34;2308984;76;20124;-73
2021/05/09 12:13:25;;;;;;;;;;;;;;;24.04;29.74;99056.68;2260096;79;20230;-73
2021/05/09 12:16:36;;;;;;;;;;;;;;;24.21;28.21;99040.02;2260285;79;20218;-73
2021/05/09 12:19:48;;;;;;;;;;;;;;;24.20;28.56;99053.08;2263269;79;20218;-73
2021/05/09 12:23:00;;;;;;;;;;;;;;;24.16;28.20;99053.61;2260096;79;20478;-74
2021/05/09 12:26:11;;;;;;;;;;;;;;;24.27;28.31;99042.50;2263237;79;20410;-73
2021/05/09 12:29:23;;;;;;;;;;;;;;;24.39;28.14;99039.75;2260119;79;20226;-74
2021/05/09 12:32:39;;;;;;;;;;;;;;;24.36;27.94;99025.86;2308810;76;20399;-73
2021/05/09 12:35:50;;;;;;;;;;;;;;;24.42;28.86;99026.48;2263249;79;20218;-74
2021/05/09 12:39:07;;;;;;;;;;;;;;;24.48;28.76;99028.47;2263106;79;20447;-73
2021/05/09 12:42:19;;;;;;;;;;;;;;;24.49;27.38;99020.73;2260105;79;20214;-73
2021/05/09 12:45:31;;;;;;;;;;;;;;;24.51;28.11;99027.25;2308854;76;20231;-73
2021/05/09 12:48:41;;;;;;;;;;;;;;;24.59;27.20;99007.61;2260172;79;20474;-73
2021/05/09 12:51:52;;;;;;;;;;;;;;;24.65;28.40;99015.81;2260246;79;20234;-73
2021/05/09 12:55:04;;;;;;;;;;;;;;;24.82;27.90;99012.45;2260142;79;20218;-73
2021/05/09 12:58:16;;;;;;;;;;;;;;;24.93;27.22;99014.41;2308917;76;20124;-73
2021/05/09 13:01:28;;;;;;;;;;;;;;;24.99;28.66;99023.05;2260070;79;20223;-73
2021/05/09 13:04:44;;;;;;;;;;;;;;;24.89;28.11;99010.72;2260119;79;20234;-73
2021/05/09 13:07:53;;;;;;;;;;;;;;;24.98;27.20;99005.28;2308935;76;20104;-73
2021/05/09 13:11:04;;;;;;;;;;;;;;;24.90;27.85;99006.20;2309109;76;20384;-74
2021/05/09 13:14:15;;;;;;;;;;;;;;;24.96;27.23;99004.13;2260158;79;20218;-73
2021/05/09 13:17:28;;;;;;;;;;;;;;;25.00;27.84;99000.06;2309019;76;20124;-73
2021/05/09 13:20:46;;;;;;;;;;;;;;;25.14;27.60;98982.81;2263087;79;20240;-73
2021/05/09 13:23:57;;;;;;;;;;;;;;;25.19;27.87;98983.11;2260280;79;20214;-73
2021/05/09 13:27:08;;;;;;;;;;;;;;;25.21;26.93;98983.26;2260271;79;20215;-73
2021/05/09 13:30:21;;;;;;;;;;;;;;;25.23;27.69;98979.87;2308959;76;20476;-73
2021/05/09 13:33:32;;;;;;;;;;;;;;;25.36;26.29;98979.77;2260169;79;20211;-73
2021/05/09 13:36:43;;;;;;;;;;;;;;;25.30;27.28;98973.27;2263394;79;20218;-73
2021/05/09 13:39:55;;;;;;;;;;;;;;;25.40;27.34;98972.98;2260129;79;20498;-73
2021/05/09 13:43:06;;;;;;;;;;;;;;;25.47;27.37;98969.88;2260134;79;20250;-73
2021/05/09 13:46:18;;;;;;;;;;;;;;;25.53;27.08;98963.78;2260106;79;20482;-73
2021/05/09 13:49:30;;;;;;;;;;;;;;;25.72;27.44;98958.85;2260117;79;20478;-73
2021/05/09 13:52:41;;;;;;;;;;;;;;;25.79;26.81;98951.70;2263227;79;20226;-73
2021/05/09 13:55:52;;;;;;;;;;;;;;;25.72;26.65;98944.08;2260135;79;20493;-73
2021/05/09 13:59:05;;;;;;;;;;;;;;;25.60;26.81;98937.00;2260130;79;20478;-73
2021/05/09 14:02:17;;;;;;;;;;;;;;;25.66;27.31;98932.23;2304693;77;20218;-73
2021/05/09 14:05:29;;;;;;;;;;;;;;;25.66;27.28;98936.27;2260132;79;20219;-73
2021/05/09 14:08:40;;;;;;;;;;;;;;;25.68;26.71;98932.05;2260136;79;20230;-73
2021/05/09 14:11:58;;;;;;;;;;;;;;;25.69;26.76;98932.38;2263216;79;20470;-73
2021/05/09 14:15:06;;;;;;;;;;;;;;;25.82;27.08;98916.92;2260252;79;20147;-73
2021/05/09 14:18:22;;;;;;;;;;;;;;;25.78;26.63;98928.54;2266133;79;20472;-73
2021/05/09 14:21:33;;;;;;;;;;;;;;;25.69;26.17;98925.66;2308885;76;20179;-73
2021/05/09 14:24:43;;;;;;;;;;;;;;;25.80;27.17;98916.27;2263268;79;20517;-73
2021/05/09 14:27:55;;;;;;;;;;;;;;;25.91;26.34;98912.55;2308889;76;20487;-73
2021/05/09 14:31:12;;;;;;;;;;;;;;;25.98;26.67;98909.95;2263154;79;20507;-73
2021/05/09 14:34:23;;;;;;;;;;;;;;;25.98;26.43;98902.41;2260128;79;20226;-73
2021/05/09 14:37:34;;;;;;;;;;;;;;;26.00;26.66;98904.38;2263249;79;20218;-73
2021/05/09 14:40:44;;;;;;;;;;;;;;;26.06;26.92;98898.27;2260124;79;20494;-73
2021/05/09 14:43:56;;;;;;;;;;;;;;;26.10;26.81;98896.37;2263376;79;20218;-73
2021/05/09 14:47:14;;;;;;;;;;;;;;;26.20;25.75;98893.33;2263166;79;20280;-73
2021/05/09 14:50:25;;;;;;;;;;;;;;;26.23;26.58;98896.16;2260092;79;20474;-73
2021/05/09 14:53:42;;;;;;;;;;;;;;;26.24;26.52;98893.79;2263128;79;20173;-73
2021/05/09 14:56:53;;;;;;;;;;;;;;;26.28;26.47;98888.35;2260125;79;20489;-73
2021/05/09 15:00:04;;;;;;;;;;;;;;;26.30;26.40;98889.50;2260099;79;20269;-73
2021/05/09 15:03:18;;;;;;;;;;;;;;;26.30;26.40;98886.81;2260144;79;20219;-73
2021/05/09 15:06:30;;;;;;;;;;;;;;;26.54;26.24;98885.55;2308761;76;20395;-73
2021/05/09 15:09:47;;;;;;;;;;;;;;;27.49;25.63;98880.01;2263101;79;20248;-73
2021/05/09 15:12:58;;;;;;;;;;;;;;;29.16;24.23;98877.06;2308904;76;20117;-73
2021/05/09 15:16:09;;;;;;;;;;;;;;;30.70;22.52;98870.70;2308938;76;20227;-73
2021/05/09 15:19:19;;;;;;;;;;;;;;;31.94;21.22;98865.03;2260149;79;20214;-73
2021/05/09 15:22:30;;;;;;;;;;;;;;;33.01;20.39;98870.55;2260107;79;20266;-73
2021/05/09 15:25:42;;;;;;;;;;;;;;;34.01;19.25;98861.62;2260104;79;20218;-73
2021/05/09 15:28:53;;;;;;;;;;;;;;;34.95;18.72;98856.53;2260115;79;20481;-73
2021/05/09 15:32:04;;;;;;;;;;;;;;;35.55;17.95;98864.91;2260122;79;20222;-73
2021/05/09 15:35:15;;;;;;;;;;;;;;;35.95;17.80;98854.66;2309024;76;20116;-73
2021/05/09 15:38:26;;;;;;;;;;;;;;;36.61;17.82;98857.63;2263247;79;20218;-73
2021/05/09 15:41:36;;;;;;;;;;;;;;;37.47;16.90;98849.59;2263251;79;20242;-73
2021/05/09 15:44:48;;;;;;;;;;;;;;;38.24;16.59;98857.09;2260112;79;20237;-73
2021/05/09 15:47:59;;;;;;;;;;;;;;;38.53;15.40;98850.45;2260277;79;20170;-73
2021/05/09 15:51:10;;;;;;;;;;;;;;;38.97;14.96;98842.95;2260250;79;20253;-73
2021/05/09 15:54:20;;;;;;;;;;;;;;;39.22;14.10;98843.95;2263251;79;20215;-73
2021/05/09 15:57:31;;;;;;;;;;;;;;;39.49;13.75;98844.90;2260129;79;20242;-73
2021/05/09 16:00:43;;;;;;;;;;;;;;;39.71;14.11;98844.25;2263213;79;20222;-73
2021/05/09 16:03:54;;;;;;;;;;;;;;;40.23;13.93;98841.92;2260121;79;20474;-73
2021/05/09 16:07:06;;;;;;;;;;;;;;;40.69;13.71;98848.36;2263377;79;20234;-73
2021/05/09 16:10:17;;;;;;;;;;;;;;;40.66;13.04;98845.64;2260089;79;20501;-73
2021/05/09 16:13:29;;;;;;;;;;;;;;;40.31;13.36;98845.42;2260108;79;20234;-75
2021/05/09 16:16:40;;;;;;;;;;;;;;;39.93;12.92;98843.26;2308891;76;20139;-74
2021/05/09 16:19:52;;;;;;;;;;;;;;;39.69;13.07;98832.19;2263057;79;20218;-74
2021/05/09 16:23:03;;;;;;;;;;;;;;;40.08;12.86;98836.84;2263239;79;20478;-76
2021/05/09 16:26:15;;;;;;;;;;;;;;;40.52;13.07;98835.08;2260240;79;20131;-74
2021/05/09 16:29:25;;;;;;;;;;;;;;;40.45;12.81;98835.95;2263236;79;20501;-74
2021/05/09 16:32:37;;;;;;;;;;;;;;;40.63;12.67;98833.02;2263274;79;20497;-75
2021/05/09 16:35:48;;;;;;;;;;;;;;;41.01;12.33;98831.78;2263367;79;20218;-74
2021/05/09 16:38:59;;;;;;;;;;;;;;;41.36;12.12;98831.89;2263241;79;20234;-74
2021/05/09 16:42:12;;;;;;;;;;;;;;;41.65;12.04;98829.52;2308924;76;20248;-74
2021/05/09 16:45:29;;;;;;;;;;;;;;;41.19;12.23;98832.90;2263744;79;20240;-74